Time;durP1;ratioP1;P1;durP2;ratioP2;P2;SDS_P1;SDS_P2;PMS_P1;PMS_P2;Temp;Humidity;BMP_temperature;BMP_pressure;BME280_temperature;BME280_humidity;BME280_pressure;Samples;Min_cycle;Max_cycle;Signal;HPM_P1;HPM_P2
2023/02/22 00:01:00;;;;;;;44.08;21.27;;;9.60;99.90;;;;;;5057156;28;20082;-79
2023/02/22 00:03:33;;;;;;;42.17;19.77;;;9.50;99.90;;;;;;5056714;28;20072;-79
2023/02/22 00:06:04;;;;;;;44.85;21.90;;;9.60;99.90;;;;;;5041017;28;20037;-79
2023/02/22 00:08:32;;;;;;;43.30;21.60;;;9.50;99.90;;;;;;5074863;28;20044;-79
2023/02/22 00:10:59;;;;;;;48.30;24.67;;;9.50;99.90;;;;;;5056733;28;20434;-79
2023/02/22 00:13:28;;;;;;;50.60;23.42;;;9.60;99.90;;;;;;5057534;28;20048;-79
2023/02/22 00:15:57;;;;;;;51.50;24.63;;;9.60;99.90;;;;;;5059746;28;20044;-79
2023/02/22 00:18:26;;;;;;;54.33;25.33;;;9.50;99.90;;;;;;5059506;28;20043;-79
2023/02/22 00:20:52;;;;;;;56.03;25.23;;;9.50;99.90;;;;;;5043732;28;20135;-79
2023/02/22 00:23:20;;;;;;;59.85;26.40;;;9.50;99.90;;;;;;5079118;28;20073;-79
2023/02/22 00:25:48;;;;;;;52.22;25.05;;;9.50;99.90;;;;;;5079731;28;20500;-79
2023/02/22 00:28:15;;;;;;;54.00;25.45;;;9.40;99.90;;;;;;5057022;28;20036;-78
2023/02/22 00:30:44;;;;;;;59.25;27.27;;;9.50;99.90;;;;;;5056837;28;20044;-78
2023/02/22 00:33:11;;;;;;;60.65;26.35;;;9.50;99.90;;;;;;5039388;28;20041;-79
2023/02/22 00:35:37;;;;;;;53.65;25.38;;;9.50;99.90;;;;;;5074392;28;20044;-79
2023/02/22 00:38:03;;;;;;;53.08;26.30;;;9.50;99.90;;;;;;5055999;28;20051;-79
2023/02/22 00:40:31;;;;;;;57.10;26.40;;;9.50;99.90;;;;;;5039438;28;20040;-79
2023/02/22 00:42:58;;;;;;;57.80;25.17;;;9.40;99.90;;;;;;5055627;28;20036;-78
2023/02/22 00:45:26;;;;;;;52.08;24.55;;;9.50;99.90;;;;;;5056269;28;20074;-78
2023/02/22 00:47:53;;;;;;;54.83;23.83;;;9.50;99.90;;;;;;5073121;28;20056;-78
2023/02/22 00:50:21;;;;;;;55.15;24.45;;;9.40;99.90;;;;;;5074041;28;20500;-79
2023/02/22 00:52:47;;;;;;;55.25;24.73;;;9.50;99.90;;;;;;5055721;28;20427;-79
2023/02/22 00:55:25;;;;;;;48.92;23.92;;;9.50;99.90;;;;;;5074018;28;20036;-79
2023/02/22 00:57:51;;;;;;;46.80;22.08;;;9.40;99.90;;;;;;5055544;28;20082;-78
2023/02/22 01:00:25;;;;;;;52.25;22.63;;;9.50;99.90;;;;;;5055461;28;20125;-79
2023/02/22 01:02:50;;;;;;;53.90;23.52;;;9.50;99.90;;;;;;5055420;28;20385;-79
2023/02/22 01:05:19;;;;;;;45.22;21.42;;;9.50;99.90;;;;;;5073693;28;20119;-79
2023/02/22 01:07:46;;;;;;;43.72;21.00;;;9.40;99.90;;;;;;5039097;28;20032;-79
2023/02/22 01:10:13;;;;;;;42.92;20.70;;;9.40;99.90;;;;;;5055685;28;20115;-79
2023/02/22 01:12:38;;;;;;;41.78;20.23;;;9.50;99.90;;;;;;5072321;28;20048;-79
2023/02/22 01:15:09;;;;;;;39.50;21.02;;;9.40;99.90;;;;;;5055196;28;20036;-79
2023/02/22 01:17:35;;;;;;;41.50;20.30;;;9.40;99.90;;;;;;5073484;28;20064;-79
2023/02/22 01:20:01;;;;;;;37.90;19.83;;;9.40;99.90;;;;;;5055382;28;20048;-79
2023/02/22 01:22:27;;;;;;;45.53;22.08;;;9.40;99.90;;;;;;5055465;28;20040;-78
2023/02/22 01:24:54;;;;;;;39.47;19.17;;;9.30;99.90;;;;;;5038879;28;20040;-79
2023/02/22 01:27:19;;;;;;;44.50;22.65;;;9.40;99.90;;;;;;5073736;28;20495;-79
2023/02/22 01:29:48;;;;;;;46.17;21.42;;;9.40;99.90;;;;;;5055133;28;20170;-79
2023/02/22 01:32:14;;;;;;;44.45;20.38;;;9.40;99.90;;;;;;5055238;28;20089;-79
2023/02/22 01:34:40;;;;;;;47.20;22.02;;;9.40;99.90;;;;;;5054793;28;20119;-78
2023/02/22 01:37:06;;;;;;;44.95;22.33;;;9.30;99.90;;;;;;5055400;28;20036;-78
2023/02/22 01:39:31;;;;;;;50.00;23.30;;;9.20;99.90;;;;;;5055303;28;20051;-78
2023/02/22 01:41:57;;;;;;;43.22;21.33;;;9.30;99.90;;;;;;5055199;28;20045;-78
2023/02/22 01:44:35;;;;;;;45.85;23.13;;;9.30;99.90;;;;;;5054862;28;20124;-78
2023/02/22 01:47:03;;;;;;;41.28;20.92;;;9.30;99.90;;;;;;5054982;28;20400;-78
2023/02/22 01:49:34;;;;;;;50.63;22.38;;;9.30;99.90;;;;;;5055082;28;20036;-78
2023/02/22 01:52:04;;;;;;;44.95;22.00;;;9.20;99.90;;;;;;5055236;28;20403;-78
2023/02/22 01:54:32;;;;;;;46.33;22.60;;;9.20;99.90;;;;;;5054369;28;20511;-78
2023/02/22 01:57:28;;;;;;;43.40;22.30;;;9.20;99.90;;;;;;5054671;28;20055;-78
2023/02/22 01:59:59;;;;;;;45.35;21.58;;;9.10;99.90;;;;;;5037217;28;20036;-78
2023/02/22 02:02:26;;;;;;;44.63;22.90;;;9.20;99.90;;;;;;5055001;28;20144;-78
2023/02/22 02:04:56;;;;;;;49.22;23.42;;;9.20;99.90;;;;;;5054698;28;20055;-79
2023/02/22 02:07:22;;;;;;;46.08;22.27;;;9.20;99.90;;;;;;5073088;28;20415;-78
2023/02/22 02:09:53;;;;;;;41.25;24.08;;;9.30;99.90;;;;;;5055007;28;20083;-78
2023/02/22 02:12:22;;;;;;;46.08;22.92;;;9.20;99.90;;;;;;5055156;28;20040;-78
2023/02/22 02:14:47;;;;;;;49.05;24.27;;;9.30;99.90;;;;;;5054637;28;20094;-78
2023/02/22 02:17:16;;;;;;;39.95;20.95;;;9.30;99.90;;;;;;5057763;28;20523;-78
2023/02/22 02:20:01;;;;;;;41.63;22.00;;;9.30;99.90;;;;;;5060783;28;20044;-78
2023/02/22 02:22:59;;;;;;;48.85;23.20;;;9.30;99.90;;;;;;5060726;28;20041;-78
2023/02/22 02:25:45;;;;;;;42.95;23.60;;;9.30;99.90;;;;;;5054588;28;20086;-78
2023/02/22 02:28:45;;;;;;;51.67;24.00;;;9.30;99.90;;;;;;5056157;28;20043;-78
2023/02/22 02:31:48;;;;;;;49.65;24.98;;;9.20;99.90;;;;;;5080672;28;20036;-78
2023/02/22 02:34:20;;;;;;;44.92;21.98;;;9.20;99.90;;;;;;5059318;28;20143;-79
2023/02/22 02:37:09;;;;;;;53.72;27.00;;;9.20;99.90;;;;;;5054226;28;20131;-78
2023/02/22 02:39:40;;;;;;;48.30;24.10;;;9.20;99.90;;;;;;5037491;28;20045;-78
2023/02/22 02:42:11;;;;;;;43.78;22.45;;;9.10;99.90;;;;;;5054255;28;20036;-78
2023/02/22 02:44:46;;;;;;;47.35;23.65;;;9.20;99.90;;;;;;5053726;28;20087;-78
2023/02/22 02:47:18;;;;;;;52.75;24.75;;;9.10;99.90;;;;;;5072080;28;20490;-78
2023/02/22 02:50:01;;;;;;;46.58;23.10;;;9.20;99.90;;;;;;5071328;28;20044;-78
2023/02/22 02:52:30;;;;;;;50.92;25.23;;;9.10;99.90;;;;;;5054874;28;20044;-79
2023/02/22 02:54:56;;;;;;;47.22;23.33;;;9.10;99.90;;;;;;5072169;28;20041;-79
2023/02/22 02:57:23;;;;;;;51.20;24.95;;;9.20;99.90;;;;;;5054491;28;20048;-79
2023/02/22 02:59:50;;;;;;;43.63;22.30;;;9.20;99.90;;;;;;5037749;28;20087;-79
2023/02/22 03:02:33;;;;;;;48.75;23.45;;;9.20;99.90;;;;;;5037936;28;20036;-79
2023/02/22 03:05:19;;;;;;;49.40;23.73;;;9.10;99.90;;;;;;5073993;28;20040;-79
2023/02/22 03:08:06;;;;;;;42.65;23.52;;;9.20;99.90;;;;;;5034401;28;20045;-78
2023/02/22 03:10:40;;;;;;;42.97;21.88;;;9.10;99.90;;;;;;5059951;28;20040;-78
2023/02/22 03:13:28;;;;;;;43.65;22.27;;;9.10;99.90;;;;;;5078491;28;20052;-79
2023/02/22 03:16:16;;;;;;;42.50;20.90;;;9.20;99.90;;;;;;5061015;28;20037;-79
2023/02/22 03:18:50;;;;;;;48.63;23.83;;;9.10;99.90;;;;;;5079752;28;20458;-78
2023/02/22 03:21:46;;;;;;;47.58;23.60;;;9.10;99.90;;;;;;5061055;28;20045;-79
2023/02/22 03:24:30;;;;;;;51.63;23.77;;;9.10;99.90;;;;;;5060111;28;20529;-79
2023/02/22 03:27:01;;;;;;;48.20;21.75;;;9.00;99.90;;;;;;5060016;28;20044;-79
2023/02/22 03:29:34;;;;;;;46.38;24.77;;;9.10;99.90;;;;;;5059019;28;20045;-79
2023/02/22 03:32:03;;;;;;;42.88;21.67;;;9.10;99.90;;;;;;5076196;28;20127;-78
2023/02/22 03:34:39;;;;;;;53.35;25.20;;;9.10;99.90;;;;;;5075872;28;20052;-79
2023/02/22 03:37:21;;;;;;;40.70;21.45;;;9.10;99.90;;;;;;5057918;28;20040;-79
2023/02/22 03:39:50;;;;;;;44.97;22.08;;;9.10;99.90;;;;;;5076094;28;20062;-79
2023/02/22 03:42:27;;;;;;;48.10;22.23;;;9.10;99.90;;;;;;5076066;28;20036;-79
2023/02/22 03:44:57;;;;;;;48.00;23.85;;;9.10;99.90;;;;;;5057682;28;20472;-78
2023/02/22 03:47:34;;;;;;;52.45;24.25;;;9.00;99.90;;;;;;5075406;28;20093;-79
2023/02/22 03:50:10;;;;;;;51.95;25.05;;;9.00;99.90;;;;;;5058135;28;20032;-79
2023/02/22 03:52:36;;;;;;;43.47;21.15;;;8.90;99.90;;;;;;5057147;28;20040;-79
2023/02/22 03:55:03;;;;;;;48.33;23.27;;;9.00;99.90;;;;;;5057741;28;20102;-79
2023/02/22 03:57:35;;;;;;;45.03;23.52;;;8.90;99.90;;;;;;5057340;28;20044;-79
2023/02/22 04:00:01;;;;;;;48.70;23.50;;;9.00;99.90;;;;;;5057526;28;20551;-79
2023/02/22 04:02:26;;;;;;;49.38;23.10;;;8.90;99.90;;;;;;5056999;28;20047;-78
2023/02/22 04:04:52;;;;;;;42.13;22.20;;;9.00;99.90;;;;;;5056950;28;20044;-79
2023/02/22 04:07:18;;;;;;;46.90;22.38;;;8.90;99.90;;;;;;5070973;28;20131;-79
2023/02/22 04:09:44;;;;;;;47.67;22.60;;;9.10;99.90;;;;;;5086998;22;20044;-77
2023/02/22 04:12:09;;;;;;;44.95;22.00;;;9.00;99.90;;;;;;5071272;28;20100;-77
2023/02/22 04:14:35;;;;;;;54.13;24.25;;;9.00;99.90;;;;;;5071525;28;20044;-77
2023/02/22 04:17:00;;;;;;;54.08;23.80;;;9.00;99.90;;;;;;5071804;28;20040;-77
2023/02/22 04:19:26;;;;;;;48.53;22.75;;;8.90;99.90;;;;;;5071392;28;20463;-77
2023/02/22 04:21:51;;;;;;;49.13;23.75;;;8.90;99.90;;;;;;5070605;28;20043;-77
2023/02/22 04:24:17;;;;;;;48.58;24.73;;;8.90;99.90;;;;;;5072811;28;20037;-77
2023/02/22 04:26:42;;;;;;;51.60;23.27;;;8.80;99.90;;;;;;5071811;28;20502;-77
2023/02/22 04:29:08;;;;;;;52.65;22.90;;;8.80;99.90;;;;;;5071677;28;20041;-77
2023/02/22 04:31:34;;;;;;;52.95;24.30;;;8.90;99.90;;;;;;5072538;28;20124;-77
2023/02/22 04:34:01;;;;;;;52.30;24.92;;;8.90;99.90;;;;;;5054558;28;20044;-77
2023/02/22 04:36:27;;;;;;;48.22;23.70;;;8.90;99.90;;;;;;5073273;28;20044;-77
2023/02/22 04:38:53;;;;;;;56.75;24.90;;;8.80;99.90;;;;;;5071827;28;20399;-77
2023/02/22 04:41:19;;;;;;;53.63;25.02;;;8.80;99.90;;;;;;5071527;28;20037;-76
2023/02/22 04:43:45;;;;;;;51.40;24.15;;;8.90;99.90;;;;;;5054118;28;20064;-77
2023/02/22 04:46:11;;;;;;;55.40;26.52;;;8.80;99.90;;;;;;5055046;28;20040;-77
2023/02/22 04:48:37;;;;;;;57.38;27.15;;;8.80;99.90;;;;;;5071011;28;20043;-77
2023/02/22 04:51:04;;;;;;;56.63;26.85;;;8.70;99.90;;;;;;5071089;28;20036;-76
2023/02/22 04:53:29;;;;;;;53.05;25.95;;;8.70;99.90;;;;;;5054421;28;20496;-76
2023/02/22 04:55:55;;;;;;;55.58;25.27;;;8.70;99.90;;;;;;5054643;28;20045;-76
2023/02/22 04:58:21;;;;;;;61.53;27.58;;;8.80;99.90;;;;;;5070898;28;20423;-76
2023/02/22 05:00:46;;;;;;;59.40;27.80;;;8.80;99.90;;;;;;5071069;28;20040;-75
2023/02/22 05:03:12;;;;;;;65.32;29.92;;;8.80;99.90;;;;;;5071129;28;20040;-76
2023/02/22 05:05:38;;;;;;;53.20;26.33;;;8.70;99.90;;;;;;5071115;28;20039;-76
2023/02/22 05:08:03;;;;;;;56.10;27.50;;;8.80;99.90;;;;;;5054311;28;20041;-76
2023/02/22 05:10:29;;;;;;;64.38;29.08;;;8.80;99.90;;;;;;5072565;28;20040;-76
2023/02/22 05:12:55;;;;;;;65.68;28.33;;;8.80;99.90;;;;;;5090840;28;20039;-76
2023/02/22 05:15:24;;;;;;;66.65;29.27;;;8.80;99.90;;;;;;5092421;28;20046;-76
2023/02/22 05:17:50;;;;;;;64.90;29.92;;;8.80;99.90;;;;;;5074576;28;20108;-76
2023/02/22 05:20:31;;;;;;;65.53;30.17;;;8.80;99.90;;;;;;5091187;28;20421;-76
2023/02/22 05:22:58;;;;;;;64.03;29.50;;;8.90;99.90;;;;;;5091898;28;20205;-76
2023/02/22 05:25:25;;;;;;;64.78;28.30;;;8.90;99.90;;;;;;5090408;28;20117;-75
2023/02/22 05:27:59;;;;;;;69.85;30.52;;;8.90;99.90;;;;;;5091848;28;20066;-76
2023/02/22 05:30:28;;;;;;;67.05;30.63;;;8.80;99.90;;;;;;5091714;28;20032;-76
2023/02/22 05:32:54;;;;;;;74.90;33.10;;;8.90;99.90;;;;;;5073088;28;20556;-76
2023/02/22 05:35:21;;;;;;;78.90;34.22;;;8.90;99.90;;;;;;5090306;28;20060;-76
2023/02/22 05:37:47;;;;;;;80.18;36.55;;;8.90;99.90;;;;;;5073219;28;20036;-76
2023/02/22 05:40:13;;;;;;;75.43;34.35;;;8.80;99.90;;;;;;5072887;28;20047;-76
2023/02/22 05:42:40;;;;;;;79.65;35.65;;;8.90;99.90;;;;;;5073031;28;20553;-76
2023/02/22 05:45:07;;;;;;;77.93;37.42;;;8.80;99.90;;;;;;5090042;28;20051;-76
2023/02/22 05:47:32;;;;;;;79.32;36.38;;;8.90;99.90;;;;;;5090008;28;20086;-76
2023/02/22 05:49:58;;;;;;;85.78;39.33;;;8.90;99.90;;;;;;5091298;28;20449;-75
2023/02/22 05:52:23;;;;;;;79.65;37.78;;;8.80;99.90;;;;;;5089930;28;20126;-76
2023/02/22 05:54:49;;;;;;;89.18;41.95;;;8.90;99.90;;;;;;5072922;28;20036;-75
2023/02/22 05:57:15;;;;;;;86.03;40.38;;;8.90;99.90;;;;;;5090397;28;20036;-76
2023/02/22 05:59:41;;;;;;;88.50;40.35;;;8.80;99.90;;;;;;5090091;28;20043;-75
2023/02/22 06:02:07;;;;;;;93.80;39.28;;;8.80;99.90;;;;;;5091558;28;20531;-76
2023/02/22 06:04:33;;;;;;;92.80;40.25;;;8.80;99.90;;;;;;5090091;28;20059;-76
2023/02/22 06:06:58;;;;;;;97.63;44.05;;;8.80;99.90;;;;;;5091305;28;20036;-75
2023/02/22 06:09:24;;;;;;;92.05;40.17;;;8.70;99.90;;;;;;5089603;28;20040;-75
2023/02/22 06:11:49;;;;;;;98.60;44.83;;;8.80;99.90;;;;;;5091420;28;20403;-77
2023/02/22 06:14:15;;;;;;;94.68;43.00;;;8.70;99.90;;;;;;5104676;28;20044;-78
2023/02/22 06:16:40;;;;;;;95.82;43.30;;;8.70;99.90;;;;;;5096143;28;20086;-77
2023/02/22 06:19:06;;;;;;;103.18;45.63;;;8.70;99.90;;;;;;5089964;28;20048;-77
2023/02/22 06:21:31;;;;;;;104.50;44.08;;;8.70;99.90;;;;;;5073395;28;20109;-77
2023/02/22 06:23:57;;;;;;;103.03;46.67;;;8.60;99.90;;;;;;5089594;28;20036;-78
2023/02/22 06:26:22;;;;;;;100.53;44.92;;;8.60;99.90;;;;;;5073420;28;20093;-77
2023/02/22 06:28:48;;;;;;;105.00;47.70;;;8.60;99.90;;;;;;5090226;28;20044;-77
2023/02/22 06:31:14;;;;;;;99.32;44.58;;;8.60;99.90;;;;;;5090050;28;20082;-77
2023/02/22 06:33:39;;;;;;;118.95;49.15;;;8.60;99.90;;;;;;5090946;28;20036;-77
2023/02/22 06:36:05;;;;;;;107.28;47.25;;;8.50;99.90;;;;;;5073285;28;20044;-77
2023/02/22 06:38:32;;;;;;;105.53;45.75;;;8.60;99.90;;;;;;5073148;28;20032;-77
2023/02/22 06:40:57;;;;;;;102.82;45.75;;;8.60;99.90;;;;;;5091132;28;20048;-77
2023/02/22 06:43:23;;;;;;;104.45;47.00;;;8.60;99.90;;;;;;5089640;28;20040;-77
2023/02/22 06:45:50;;;;;;;106.72;47.70;;;8.50;99.90;;;;;;5091358;28;20085;-77
2023/02/22 06:48:15;;;;;;;118.50;54.75;;;8.50;99.90;;;;;;5094852;28;20036;-77
2023/02/22 06:50:41;;;;;;;115.05;52.30;;;8.50;99.90;;;;;;5076459;28;20059;-78
2023/02/22 06:53:06;;;;;;;106.05;46.17;;;8.50;99.90;;;;;;5093263;28;20166;-77
2023/02/22 06:55:34;;;;;;;100.80;46.67;;;8.50;99.90;;;;;;5093549;28;20036;-77
2023/02/22 06:58:01;;;;;;;103.05;47.92;;;8.60;99.90;;;;;;5093412;28;20055;-77
2023/02/22 07:00:28;;;;;;;105.18;49.05;;;8.60;99.90;;;;;;5094781;28;20120;-77
2023/02/22 07:02:54;;;;;;;104.75;47.00;;;8.50;99.90;;;;;;5094239;28;20055;-78
2023/02/22 07:05:21;;;;;;;105.05;47.85;;;8.50;99.90;;;;;;5095896;28;20036;-77
2023/02/22 07:07:48;;;;;;;111.45;47.38;;;8.50;99.90;;;;;;5094876;28;20040;-77
2023/02/22 07:10:26;;;;;;;110.22;47.70;;;8.50;99.90;;;;;;5050523;28;20040;-77
2023/02/22 07:12:52;;;;;;;107.00;47.47;;;8.50;99.90;;;;;;5054525;28;20041;-77
2023/02/22 07:15:21;;;;;;;107.13;50.75;;;8.60;99.90;;;;;;5073452;28;20044;-77
2023/02/22 07:17:47;;;;;;;106.60;47.67;;;8.50;99.90;;;;;;5056990;28;20086;-77
2023/02/22 07:20:12;;;;;;;109.80;46.03;;;8.60;99.90;;;;;;5072611;28;20056;-77
2023/02/22 07:22:38;;;;;;;116.20;49.20;;;8.50;99.90;;;;;;5074338;28;20652;-77
2023/02/22 07:25:11;;;;;;;112.88;47.70;;;8.60;99.90;;;;;;5072834;28;20086;-77
2023/02/22 07:27:40;;;;;;;114.03;46.88;;;8.60;99.90;;;;;;5074533;28;20096;-77
2023/02/22 07:30:29;;;;;;;105.75;48.10;;;8.60;99.90;;;;;;5074183;28;20083;-77
2023/02/22 07:32:57;;;;;;;108.70;47.10;;;8.70;99.90;;;;;;5059656;28;20052;-77
2023/02/22 07:35:24;;;;;;;104.75;46.55;;;8.70;99.90;;;;;;5072984;28;20099;-77
2023/02/22 07:37:50;;;;;;;103.10;46.83;;;8.60;99.90;;;;;;5055759;28;20051;-77
2023/02/22 07:40:16;;;;;;;117.60;49.63;;;8.50;99.90;;;;;;5073585;28;20040;-77
2023/02/22 07:42:56;;;;;;;107.55;47.33;;;8.70;99.90;;;;;;5073137;28;20047;-76
2023/02/22 07:45:25;;;;;;;111.07;48.67;;;8.80;99.90;;;;;;5074210;28;20032;-76
2023/02/22 07:47:50;;;;;;;112.28;49.17;;;8.70;99.90;;;;;;5055403;28;20036;-77
2023/02/22 07:50:18;;;;;;;102.40;45.03;;;8.80;99.90;;;;;;5075069;28;20100;-78
2023/02/22 07:52:45;;;;;;;94.57;43.30;;;8.70;99.90;;;;;;5073134;28;20414;-78
2023/02/22 07:55:13;;;;;;;107.22;43.78;;;8.80;99.90;;;;;;5073334;28;20523;-77
2023/02/22 07:57:38;;;;;;;104.03;45.10;;;8.80;99.90;;;;;;5071846;28;20040;-77
2023/02/22 08:00:05;;;;;;;103.32;46.10;;;8.70;99.90;;;;;;5073171;28;20044;-76
2023/02/22 08:02:30;;;;;;;98.63;42.72;;;8.80;99.90;;;;;;5072895;28;20472;-77
2023/02/22 08:04:56;;;;;;;94.05;40.80;;;8.80;99.90;;;;;;5071755;28;20123;-77
2023/02/22 08:07:21;;;;;;;100.22;41.50;;;8.70;99.90;;;;;;5071865;28;20071;-77
2023/02/22 08:09:46;;;;;;;93.82;44.38;;;8.70;99.90;;;;;;5071685;28;20075;-77
2023/02/22 08:12:12;;;;;;;85.93;39.10;;;8.70;99.90;;;;;;5054842;28;20226;-77
2023/02/22 08:14:37;;;;;;;93.55;41.97;;;8.80;99.90;;;;;;5071442;28;20492;-76
2023/02/22 08:17:03;;;;;;;97.85;41.15;;;8.70;99.90;;;;;;5071884;28;20524;-76
2023/02/22 08:19:29;;;;;;;86.60;42.35;;;8.70;99.90;;;;;;5067482;28;20219;-77
2023/02/22 08:21:54;;;;;;;90.22;41.60;;;8.80;99.90;;;;;;5063396;28;20078;-76
2023/02/22 08:24:20;;;;;;;93.75;42.83;;;8.80;99.90;;;;;;5069810;28;20029;-77
2023/02/22 08:26:46;;;;;;;98.95;43.17;;;8.80;99.90;;;;;;5072314;28;20072;-76
2023/02/22 08:29:13;;;;;;;93.30;43.13;;;8.80;99.90;;;;;;5071531;28;20552;-77
2023/02/22 08:31:39;;;;;;;94.93;41.47;;;8.80;99.90;;;;;;5054754;28;20480;-77
2023/02/22 08:34:04;;;;;;;90.03;39.63;;;8.90;99.90;;;;;;5054815;28;20415;-77
2023/02/22 08:36:31;;;;;;;91.35;41.58;;;8.80;99.90;;;;;;5072658;28;20044;-77
2023/02/22 08:38:57;;;;;;;87.97;39.85;;;8.90;99.90;;;;;;5072493;28;20044;-77
2023/02/22 08:41:23;;;;;;;90.65;38.90;;;8.80;99.90;;;;;;5071456;28;20040;-76
2023/02/22 08:43:48;;;;;;;94.57;43.97;;;8.90;99.90;;;;;;5072516;28;20514;-77
2023/02/22 08:46:15;;;;;;;88.38;39.97;;;8.90;99.90;;;;;;5071405;28;20040;-76
2023/02/22 08:48:51;;;;;;;91.00;39.85;;;8.90;99.90;;;;;;5071246;28;20123;-76
2023/02/22 08:51:17;;;;;;;89.65;39.50;;;9.00;99.90;;;;;;5071983;28;20037;-77
2023/02/22 08:53:43;;;;;;;87.53;39.92;;;9.00;99.90;;;;;;5070959;28;20495;-76
2023/02/22 08:56:08;;;;;;;89.45;41.00;;;9.00;99.90;;;;;;5071310;28;20059;-77
2023/02/22 08:58:34;;;;;;;90.68;41.08;;;9.00;99.90;;;;;;5074206;28;20037;-77
2023/02/22 09:00:59;;;;;;;87.43;40.85;;;9.10;99.90;;;;;;5072108;28;20044;-78
2023/02/22 09:03:25;;;;;;;91.03;41.97;;;9.00;99.90;;;;;;5071933;28;20044;-77
2023/02/22 09:05:50;;;;;;;93.60;41.35;;;9.10;99.90;;;;;;5071307;28;20032;-78
2023/02/22 09:08:16;;;;;;;89.93;42.25;;;9.10;99.90;;;;;;5047067;28;20024;-77
2023/02/22 09:10:44;;;;;;;90.53;42.38;;;9.20;99.90;;;;;;5064416;28;20206;-78
2023/02/22 09:13:10;;;;;;;89.60;40.17;;;9.00;99.90;;;;;;5081763;28;20047;-77
2023/02/22 09:15:36;;;;;;;91.25;41.95;;;9.20;99.90;;;;;;5065135;28;20059;-77
2023/02/22 09:18:03;;;;;;;84.85;39.25;;;9.20;99.90;;;;;;5064949;28;20515;-77
2023/02/22 09:20:29;;;;;;;91.88;41.28;;;9.20;99.90;;;;;;5075368;28;20059;-80
2023/02/22 09:22:55;;;;;;;84.45;39.90;;;9.30;99.90;;;;;;5093300;28;20115;-77
2023/02/22 09:25:22;;;;;;;86.43;39.47;;;9.30;99.90;;;;;;5071821;28;20112;-77
2023/02/22 09:27:49;;;;;;;90.85;41.75;;;9.20;99.90;;;;;;5067043;28;20036;-78
2023/02/22 09:30:31;;;;;;;92.20;42.17;;;9.30;99.90;;;;;;5050180;28;20043;-78
2023/02/22 09:33:00;;;;;;;87.18;39.90;;;9.30;99.90;;;;;;5048392;28;20499;-78
2023/02/22 09:35:26;;;;;;;88.97;38.28;;;9.30;99.90;;;;;;5070128;28;20040;-77
2023/02/22 09:37:56;;;;;;;92.07;40.25;;;9.40;99.90;;;;;;5058601;28;20408;-77
2023/02/22 09:40:24;;;;;;;86.72;39.50;;;9.40;99.90;;;;;;5074186;28;20514;-77
2023/02/22 09:43:15;;;;;;;87.43;38.85;;;9.40;99.90;;;;;;5066443;28;20467;-77
2023/02/22 09:46:10;;;;;;;82.25;38.80;;;9.50;99.90;;;;;;5049422;28;20047;-77
2023/02/22 09:48:50;;;;;;;86.55;38.28;;;9.40;99.90;;;;;;5045460;28;20116;-77
2023/02/22 09:51:17;;;;;;;82.88;37.55;;;9.50;99.90;;;;;;5064703;28;20059;-77
2023/02/22 09:53:47;;;;;;;97.40;42.33;;;9.50;99.90;;;;;;5062337;28;20119;-77
2023/02/22 09:56:18;;;;;;;85.20;39.53;;;9.50;99.90;;;;;;5062448;28;20079;-77
2023/02/22 09:58:47;;;;;;;83.32;39.92;;;9.50;99.90;;;;;;5045223;28;20043;-77
2023/02/22 10:01:35;;;;;;;88.28;38.97;;;9.60;99.90;;;;;;5064678;28;20071;-77
2023/02/22 10:04:29;;;;;;;88.28;37.17;;;9.50;99.90;;;;;;5050766;28;20590;-79
2023/02/22 10:07:37;;;;;;;85.47;37.22;;;9.50;99.90;;;;;;5057791;28;20046;-78
2023/02/22 10:10:05;;;;;;;84.65;41.00;;;9.50;99.90;;;;;;5045396;22;20108;-78
2023/02/22 10:12:52;;;;;;;90.28;39.15;;;9.50;99.90;;;;;;5058534;28;20139;-74
2023/02/22 10:15:33;;;;;;;90.18;40.22;;;9.60;99.90;;;;;;5091872;28;20043;-75
2023/02/22 10:18:23;;;;;;;89.03;38.45;;;9.60;99.90;;;;;;5091786;28;20393;-74
2023/02/22 10:21:09;;;;;;;86.18;41.05;;;9.60;99.90;;;;;;5074043;28;20040;-74
2023/02/22 10:23:45;;;;;;;94.00;39.35;;;9.60;99.90;;;;;;5095588;28;20051;-75
2023/02/22 10:26:27;;;;;;;82.18;37.67;;;9.60;99.90;;;;;;5077768;28;20384;-74
2023/02/22 10:29:22;;;;;;;90.18;38.90;;;9.60;99.90;;;;;;5095434;28;20036;-74
2023/02/22 10:31:57;;;;;;;88.32;39.67;;;9.50;99.90;;;;;;5077461;28;20042;-73
2023/02/22 10:34:30;;;;;;;92.00;37.88;;;9.50;99.90;;;;;;5060556;28;20068;-74
2023/02/22 10:37:15;;;;;;;;;;;9.50;99.90;;;;;;5078062;28;20047;-75
2023/02/22 10:39:42;;;;;;;90.18;38.05;;;9.50;99.90;;;;;;5095393;28;20029;-74
2023/02/22 10:42:08;;;;;;;89.40;36.45;;;9.40;99.90;;;;;;5060350;28;20040;-74
2023/02/22 10:44:38;;;;;;;79.13;37.60;;;9.30;99.90;;;;;;5095210;28;20131;-74
2023/02/22 10:47:10;;;;;;;89.40;37.70;;;9.30;99.90;;;;;;5095382;28;20032;-74
2023/02/22 10:49:59;;;;;;;96.87;38.40;;;9.30;99.90;;;;;;5060511;28;20140;-74
2023/02/22 10:52:29;;;;;;;83.78;36.42;;;9.20;99.90;;;;;;5094518;28;20434;-75
2023/02/22 10:54:57;;;;;;;81.22;32.65;;;9.20;99.90;;;;;;5095111;28;20036;-75
2023/02/22 10:57:27;;;;;;;77.45;33.63;;;9.10;99.90;;;;;;5077050;28;20521;-75
2023/02/22 10:59:56;;;;;;;83.43;35.05;;;9.10;99.90;;;;;;5076888;28;20040;-75
2023/02/22 11:02:30;;;;;;;86.20;36.78;;;9.10;99.90;;;;;;5076553;28;20047;-75
2023/02/22 11:04:59;;;;;;;80.07;32.88;;;9.10;99.90;;;;;;5094581;28;20036;-75
2023/02/22 11:07:28;;;;;;;77.57;33.55;;;9.10;99.90;;;;;;5060069;28;20036;-74
2023/02/22 11:10:00;;;;;;;79.97;34.05;;;9.20;99.90;;;;;;5094607;28;20115;-74
2023/02/22 11:12:30;;;;;;;79.07;32.25;;;9.20;99.90;;;;;;5094738;28;20161;-74
2023/02/22 11:14:57;;;;;;;76.10;32.13;;;9.20;99.90;;;;;;5076655;28;20403;-74
2023/02/22 11:17:29;;;;;;;72.43;33.03;;;9.20;99.90;;;;;;5094506;28;20039;-74
2023/02/22 11:19:56;;;;;;;76.55;33.35;;;9.30;99.90;;;;;;5094782;28;20068;-75
2023/02/22 11:22:39;;;;;;;81.20;33.75;;;9.20;99.90;;;;;;5094503;28;20048;-74
2023/02/22 11:25:06;;;;;;;70.22;33.03;;;9.30;99.90;;;;;;5094438;28;20127;-74
2023/02/22 11:27:40;;;;;;;71.18;30.85;;;9.30;99.90;;;;;;5076570;28;20410;-75
2023/02/22 11:30:30;;;;;;;80.88;33.88;;;9.40;99.90;;;;;;5094278;28;20157;-75
2023/02/22 11:33:22;;;;;;;62.58;26.70;;;9.40;99.90;;;;;;5081959;28;20150;-74
2023/02/22 11:35:54;;;;;;;61.28;26.98;;;9.50;99.90;;;;;;5067442;28;20117;-75
2023/02/22 11:38:23;;;;;;;62.63;29.10;;;9.60;99.90;;;;;;5076084;28;20048;-75
2023/02/22 11:41:16;;;;;;;63.53;27.90;;;9.70;99.90;;;;;;5094019;28;20097;-75
2023/02/22 11:43:45;;;;;;;64.32;28.42;;;9.70;99.90;;;;;;5063196;28;20131;-75
2023/02/22 11:46:24;;;;;;;53.42;24.98;;;9.70;99.90;;;;;;5094256;28;20051;-74
2023/02/22 11:49:03;;;;;;;68.10;30.25;;;9.80;99.90;;;;;;5090629;28;20028;-74
2023/02/22 11:51:59;;;;;;;58.55;25.50;;;9.90;99.90;;;;;;5094116;28;20538;-74
2023/02/22 11:54:43;;;;;;;63.78;28.27;;;9.90;99.90;;;;;;5093816;28;20048;-73
2023/02/22 11:57:24;;;;;;;;;;;10.00;99.90;;;;;;5094460;28;20075;-73
2023/02/22 12:00:14;;;;;;;62.45;27.02;;;10.00;99.90;;;;;;5094012;28;19920;-73
2023/02/22 12:03:37;;;;;;;66.82;27.85;;;10.00;99.90;;;;;;5075760;28;20518;-73
2023/02/22 12:06:23;;;;;;;65.03;28.30;;;10.00;99.90;;;;;;5011548;28;20094;-74
2023/02/22 12:09:14;;;;;;;62.78;27.15;;;10.10;99.90;;;;;;5009571;28;20042;-73
2023/02/22 12:11:54;;;;;;;59.88;27.83;;;10.10;99.90;;;;;;5056137;28;20048;-73
2023/02/22 12:14:57;;;;;;;54.47;26.48;;;10.20;99.90;;;;;;5079752;28;20042;-73
2023/02/22 12:17:41;;;;;;;59.00;26.70;;;10.30;99.90;;;;;;5060237;28;20032;-73
2023/02/22 12:20:20;;;;;;;62.92;27.58;;;10.30;99.90;;;;;;5083813;28;20028;-73
2023/02/22 12:23:00;;;;;;;60.35;26.58;;;10.30;99.90;;;;;;5066409;28;20040;-74
2023/02/22 12:25:30;;;;;;;63.25;26.88;;;10.30;99.90;;;;;;5093350;28;20093;-73
2023/02/22 12:28:18;;;;;;;58.42;26.88;;;10.20;99.90;;;;;;5093188;28;20555;-73
2023/02/22 12:30:51;;;;;;;58.45;26.42;;;10.30;99.90;;;;;;5093391;28;20039;-73
2023/02/22 12:33:23;;;;;;;55.45;27.15;;;10.30;99.90;;;;;;5081997;28;20041;-73
2023/02/22 12:35:58;;;;;;;52.47;25.75;;;10.40;99.90;;;;;;5092080;28;20036;-74
2023/02/22 12:38:36;;;;;;;58.20;26.15;;;10.30;99.90;;;;;;5093189;28;20071;-74
2023/02/22 12:41:25;;;;;;;53.72;24.88;;;10.40;99.90;;;;;;5083913;28;20045;-73
2023/02/22 12:44:17;;;;;;;57.58;26.60;;;10.30;99.90;;;;;;5044279;28;20040;-74
2023/02/22 12:46:53;;;;;;;57.10;26.27;;;10.30;99.90;;;;;;5040484;28;20040;-74
2023/02/22 12:49:40;;;;;;;58.17;26.48;;;10.50;99.90;;;;;;5072732;28;20401;-73
2023/02/22 12:52:17;;;;;;;54.92;26.13;;;10.50;99.90;;;;;;5072836;28;20028;-73
2023/02/22 12:54:58;;;;;;;53.55;26.73;;;10.60;99.90;;;;;;5054584;28;20039;-73
2023/02/22 12:57:48;;;;;;;59.85;28.15;;;10.60;99.90;;;;;;5061683;28;20040;-73